Terminal Aerodrome Forecast
Issued by NWS Nashville, TN

Current Version | Previous Version | Text Only | Print | Product List | Glossary On
Versions: 1 2 3 4 5 6 7 8 9 10 11 12 13 14 15 16 17 18 19 20 21 22 23 24 25
000
FTUS44 KOHX 242322
TAFCSV
TAF
KCSV 242322Z 2500/2524 29009KT P6SM SCT030 BKN250
     FM250500 VRB03KT 5SM BR SCT250
     FM250900 00000KT 2SM BR SCT250
     FM251300 00000KT 4SM BR SCT250
     FM251400 33005KT P6SM FEW025 SCT250=

USA.gov is the U.S. government's official web portal to all federal, state and local government web resources and services.